Terminal Aerodrome Forecast
Issued by NWS Sterling, VA

Home | Current Version | Previous Version | Text Only | Print | Product List | Glossary On
Versions: 1 2 3 4 5 6 7 8 9 10 11 12 13 14 15 16 17 18 19 20 21 22 23 24 25 26 27 28 29
991
FTUS41 KLWX 242325
TAFDCA
TAF
KDCA 242325Z 2500/2524 10007KT P6SM OVC015
     FM250300 09011G20KT P6SM -RA OVC011
     FM250400 07013G22KT 6SM -RA BR OVC008
     FM250700 07012G22KT 4SM RA BR OVC005
     FM251200 12006KT P6SM OVC008
     FM251600 19009KT P6SM -SHRA BKN045=

USA.gov is the U.S. government's official web portal to all federal, state and local government web resources and services.